Terminal Aerodrome Forecast
Issued by NWS Birmingham, AL

Home | Current Version | Previous Version | Text Only | Print | Product List | Glossary On
Versions: 1 2 3 4 5 6 7 8 9 10 11 12 13 14 15 16 17 18 19 20 21 22 23
111
FTUS44 KBMX 301729
TAFBHM
TAF
KBHM 301729Z 3018/3118 30010G20KT 4SM TSRA SCT025CB BKN050
     FM302000 23010KT P6SM VCTS SCT035CB BKN050
     FM310200 23003KT P6SM FEW040 SCT150
     FM311500 32003KT P6SM VCTS SCT050CB SCT250=

USA.gov is the U.S. government's official web portal to all federal, state and local government web resources and services.